SAS4717 ENGM-LIMC
Flight info
| Callsign | SAS4717 |
|---|---|
| Flight time | 2h 16m |
| Altitude | 39000 |
| Route | VIPPA DCT DOSUR/N0445F390 DCT WRB/N0442F380 DCT XAROL DCT BOMBI DCT GIGET DCT ABUKA DCT KRH DCT NATOR/N0447F390 DCT DITON DCT BASGO Z424 RIXUV |
| Aircraft | A320/M-SDE3FGHIJ1RWXYZ/ALB1 |
Departure
| Time | 2026-05-06 09:25 |
|---|---|
| Airport | Oslo-Gardermoen International Airport (ENGM) |
Arrival
| Time | 2026-05-06 11:41 |
|---|---|
| Airport | Milan Malpensa International Airport (LIMC) |
| Time | Latitude | Longitude | Altitude | Speed | Heading |
|---|---|---|---|---|---|
| 2026-05-06 08:46 | 60.19346 | 11.10269 | 679 ft | 0 kts | 16° |
| 2026-05-06 09:16 | 60.19326 | 11.10257 | 677 ft | 4 kts | 10° |
| 2026-05-06 09:16 | 60.19307 | 11.10262 | 683 ft | 3 kts | 332° |
| 2026-05-06 09:16 | 60.19283 | 11.10286 | 681 ft | 4 kts | 334° |
| 2026-05-06 09:17 | 60.19259 | 11.10310 | 680 ft | 4 kts | 329° |
| 2026-05-06 09:17 | 60.19238 | 11.10342 | 678 ft | 4 kts | 302° |
| 2026-05-06 09:17 | 60.19234 | 11.10358 | 685 ft | 0 kts | 286° |
| 2026-05-06 09:19 | 60.19251 | 11.10338 | 678 ft | 6 kts | 352° |
| 2026-05-06 09:19 | 60.19267 | 11.10409 | 685 ft | 8 kts | 102° |
| 2026-05-06 09:20 | 60.19249 | 11.10539 | 685 ft | 11 kts | 106° |
| 2026-05-06 09:20 | 60.19223 | 11.10714 | 685 ft | 15 kts | 106° |
| 2026-05-06 09:20 | 60.19195 | 11.10904 | 685 ft | 13 kts | 106° |
| 2026-05-06 09:20 | 60.19172 | 11.11102 | 685 ft | 15 kts | 86° |
| 2026-05-06 09:21 | 60.19266 | 11.11192 | 685 ft | 17 kts | 18° |
| 2026-05-06 09:21 | 60.19392 | 11.11265 | 684 ft | 21 kts | 16° |
| 2026-05-06 09:21 | 60.19543 | 11.11353 | 682 ft | 24 kts | 15° |
| 2026-05-06 09:21 | 60.19711 | 11.11448 | 683 ft | 25 kts | 17° |
| 2026-05-06 09:22 | 60.19876 | 11.11546 | 685 ft | 22 kts | 16° |
| 2026-05-06 09:22 | 60.20016 | 11.11625 | 686 ft | 20 kts | 16° |
| 2026-05-06 09:22 | 60.20089 | 11.11742 | 686 ft | 15 kts | 101° |
| 2026-05-06 09:22 | 60.20064 | 11.11917 | 686 ft | 5 kts | 105° |
| 2026-05-06 09:23 | 60.20058 | 11.11956 | 687 ft | 0 kts | 105° |
| 2026-05-06 09:23 | 60.20058 | 11.11961 | 687 ft | 2 kts | 105° |
| 2026-05-06 09:23 | 60.20046 | 11.12044 | 688 ft | 11 kts | 105° |
| 2026-05-06 09:24 | 60.20012 | 11.12186 | 687 ft | 9 kts | 163° |
| 2026-05-06 09:24 | 60.19946 | 11.12147 | 688 ft | 15 kts | 195° |
| 2026-05-06 09:24 | 60.19676 | 11.11991 | 685 ft | 83 kts | 196° |
| 2026-05-06 09:24 | 60.18833 | 11.11503 | 688 ft | 164 kts | 196° |
| 2026-05-06 09:25 | 60.17654 | 11.10828 | 1369 ft | 182 kts | 196° |
| 2026-05-06 09:25 | 60.16387 | 11.10125 | 2347 ft | 199 kts | 195° |
| 2026-05-06 09:25 | 60.15012 | 11.09355 | 2941 ft | 213 kts | 196° |
| 2026-05-06 09:25 | 60.13517 | 11.08502 | 3471 ft | 232 kts | 194° |
| 2026-05-06 09:26 | 60.11865 | 11.07984 | 4231 ft | 250 kts | 188° |
| 2026-05-06 09:26 | 60.10102 | 11.07566 | 5146 ft | 259 kts | 188° |
| 2026-05-06 09:26 | 60.08298 | 11.07159 | 6166 ft | 263 kts | 190° |
| 2026-05-06 09:26 | 60.06544 | 11.06118 | 7118 ft | 265 kts | 202° |
| 2026-05-06 09:27 | 60.04817 | 11.04802 | 8132 ft | 266 kts | 203° |
| 2026-05-06 09:27 | 60.03080 | 11.03472 | 9177 ft | 268 kts | 203° |
| 2026-05-06 09:27 | 60.01332 | 11.02134 | 10161 ft | 271 kts | 204° |
| 2026-05-06 09:27 | 59.99507 | 11.00730 | 10547 ft | 293 kts | 204° |
| 2026-05-06 09:28 | 59.97533 | 10.99200 | 10811 ft | 316 kts | 204° |
| 2026-05-06 09:28 | 59.95427 | 10.97574 | 11272 ft | 330 kts | 205° |
| 2026-05-06 09:28 | 59.93261 | 10.95920 | 11988 ft | 336 kts | 205° |
| 2026-05-06 09:28 | 59.91062 | 10.94252 | 12728 ft | 340 kts | 206° |
| 2026-05-06 09:29 | 59.88830 | 10.92561 | 13437 ft | 345 kts | 206° |
| 2026-05-06 09:29 | 59.86571 | 10.90851 | 14182 ft | 349 kts | 207° |
| 2026-05-06 09:29 | 59.84295 | 10.89131 | 14892 ft | 351 kts | 207° |
| 2026-05-06 09:29 | 59.82009 | 10.87407 | 15615 ft | 352 kts | 207° |
| 2026-05-06 09:30 | 59.79710 | 10.85676 | 16317 ft | 354 kts | 207° |
| 2026-05-06 09:30 | 59.77399 | 10.83936 | 17075 ft | 356 kts | 208° |
| 2026-05-06 09:30 | 59.75086 | 10.82191 | 17840 ft | 357 kts | 208° |
| 2026-05-06 09:30 | 59.72752 | 10.80429 | 18517 ft | 359 kts | 208° |
| 2026-05-06 09:31 | 59.70410 | 10.78665 | 19204 ft | 361 kts | 207° |
| 2026-05-06 09:31 | 59.68056 | 10.76898 | 19904 ft | 363 kts | 207° |
| 2026-05-06 09:31 | 59.65687 | 10.75125 | 20587 ft | 365 kts | 207° |
| 2026-05-06 09:31 | 59.63305 | 10.73352 | 21235 ft | 367 kts | 207° |
| 2026-05-06 09:32 | 59.60911 | 10.71577 | 21834 ft | 369 kts | 207° |
| 2026-05-06 09:32 | 59.58503 | 10.69792 | 22411 ft | 371 kts | 207° |
| 2026-05-06 09:32 | 59.56083 | 10.67991 | 22981 ft | 373 kts | 207° |
| 2026-05-06 09:32 | 59.53651 | 10.66172 | 23538 ft | 375 kts | 207° |
| 2026-05-06 09:33 | 59.51207 | 10.64346 | 23995 ft | 376 kts | 207° |
| 2026-05-06 09:33 | 59.48754 | 10.62520 | 24445 ft | 378 kts | 207° |
| 2026-05-06 09:33 | 59.46285 | 10.60694 | 24881 ft | 380 kts | 207° |
| 2026-05-06 09:33 | 59.43810 | 10.58868 | 25272 ft | 381 kts | 207° |
| 2026-05-06 09:34 | 59.41326 | 10.57036 | 25695 ft | 382 kts | 207° |
| 2026-05-06 09:34 | 59.38832 | 10.55194 | 26119 ft | 384 kts | 207° |
| 2026-05-06 09:34 | 59.36327 | 10.53353 | 26543 ft | 386 kts | 207° |
| 2026-05-06 09:34 | 59.33806 | 10.51510 | 26953 ft | 387 kts | 207° |
| 2026-05-06 09:35 | 59.31275 | 10.49662 | 27367 ft | 389 kts | 207° |
| 2026-05-06 09:35 | 59.28735 | 10.47807 | 27825 ft | 391 kts | 207° |
| 2026-05-06 09:35 | 59.26185 | 10.45945 | 28220 ft | 392 kts | 207° |
| 2026-05-06 09:35 | 59.23618 | 10.44070 | 28606 ft | 394 kts | 207° |
| 2026-05-06 09:36 | 59.21047 | 10.42195 | 28976 ft | 396 kts | 207° |
| 2026-05-06 09:36 | 59.18459 | 10.40316 | 29304 ft | 398 kts | 207° |
| 2026-05-06 09:36 | 59.15858 | 10.38428 | 29642 ft | 400 kts | 206° |
| 2026-05-06 09:36 | 59.13253 | 10.36539 | 30114 ft | 398 kts | 206° |
| 2026-05-06 09:37 | 59.10661 | 10.34663 | 30539 ft | 397 kts | 206° |
| 2026-05-06 09:37 | 59.08077 | 10.32796 | 30951 ft | 396 kts | 206° |
| 2026-05-06 09:37 | 59.05500 | 10.30936 | 31361 ft | 395 kts | 206° |
| 2026-05-06 09:37 | 59.02927 | 10.29082 | 31776 ft | 394 kts | 206° |
| 2026-05-06 09:38 | 59.00357 | 10.27235 | 32194 ft | 394 kts | 206° |
| 2026-05-06 09:38 | 58.97791 | 10.25390 | 32616 ft | 393 kts | 206° |
| 2026-05-06 09:38 | 58.95224 | 10.23579 | 33045 ft | 394 kts | 204° |
| 2026-05-06 09:38 | 58.92535 | 10.22347 | 33458 ft | 401 kts | 196° |
| 2026-05-06 09:39 | 58.89769 | 10.21574 | 33815 ft | 402 kts | 195° |
| 2026-05-06 09:39 | 58.86998 | 10.20802 | 34177 ft | 402 kts | 195° |
| 2026-05-06 09:39 | 58.84224 | 10.20029 | 34500 ft | 403 kts | 195° |
| 2026-05-06 09:39 | 58.81439 | 10.19250 | 34805 ft | 405 kts | 195° |
| 2026-05-06 09:40 | 58.78648 | 10.18465 | 35102 ft | 406 kts | 195° |
| 2026-05-06 09:40 | 58.75847 | 10.17673 | 35390 ft | 407 kts | 194° |
| 2026-05-06 09:40 | 58.70217 | 10.16097 | 35952 ft | 410 kts | 194° |
| 2026-05-06 09:41 | 58.67388 | 10.15304 | 36226 ft | 412 kts | 194° |
| 2026-05-06 09:41 | 58.64551 | 10.14507 | 36495 ft | 413 kts | 194° |
| 2026-05-06 09:41 | 58.61706 | 10.13711 | 36722 ft | 414 kts | 194° |
| 2026-05-06 09:41 | 58.58853 | 10.12918 | 36997 ft | 415 kts | 193° |
| 2026-05-06 09:42 | 58.56029 | 10.12137 | 37258 ft | 416 kts | 193° |
| 2026-05-06 09:42 | 58.53166 | 10.11346 | 37519 ft | 417 kts | 193° |
| 2026-05-06 09:42 | 58.50252 | 10.10543 | 37788 ft | 418 kts | 193° |
| 2026-05-06 09:42 | 58.47407 | 10.09766 | 38038 ft | 419 kts | 193° |
| 2026-05-06 09:43 | 58.44481 | 10.08969 | 38298 ft | 420 kts | 193° |
| 2026-05-06 09:43 | 58.41586 | 10.08178 | 38550 ft | 421 kts | 193° |
| 2026-05-06 09:43 | 58.38687 | 10.07384 | 38760 ft | 421 kts | 193° |
| 2026-05-06 09:43 | 58.35782 | 10.06588 | 38933 ft | 423 kts | 193° |
| 2026-05-06 09:44 | 58.29982 | 10.04997 | 39014 ft | 427 kts | 193° |
| 2026-05-06 09:44 | 58.24008 | 10.03373 | 39013 ft | 433 kts | 193° |
| 2026-05-06 09:45 | 58.18075 | 10.01775 | 39010 ft | 434 kts | 193° |
| 2026-05-06 09:45 | 58.12097 | 10.00148 | 39010 ft | 434 kts | 193° |
| 2026-05-06 09:46 | 58.06119 | 9.98522 | 38993 ft | 434 kts | 193° |
| 2026-05-06 09:46 | 58.00142 | 9.96916 | 39007 ft | 434 kts | 193° |
| 2026-05-06 09:47 | 57.94159 | 9.95315 | 39014 ft | 434 kts | 193° |
| 2026-05-06 09:47 | 57.88170 | 9.93717 | 39019 ft | 435 kts | 192° |
| 2026-05-06 09:48 | 57.82180 | 9.92121 | 39015 ft | 435 kts | 193° |
| 2026-05-06 09:48 | 57.76190 | 9.90536 | 39000 ft | 434 kts | 192° |
| 2026-05-06 09:49 | 57.70209 | 9.88954 | 39010 ft | 434 kts | 192° |
| 2026-05-06 09:49 | 57.64228 | 9.87383 | 39009 ft | 434 kts | 192° |
| 2026-05-06 09:50 | 57.59257 | 9.86080 | 39015 ft | 434 kts | 192° |
| 2026-05-06 09:50 | 57.53277 | 9.84510 | 38995 ft | 434 kts | 192° |
| 2026-05-06 09:51 | 57.47296 | 9.82957 | 39003 ft | 434 kts | 192° |
| 2026-05-06 09:51 | 57.41317 | 9.81404 | 39004 ft | 434 kts | 192° |
| 2026-05-06 09:52 | 57.35335 | 9.79852 | 39002 ft | 434 kts | 192° |
| 2026-05-06 09:52 | 57.29356 | 9.78307 | 38999 ft | 434 kts | 192° |
| 2026-05-06 09:53 | 57.23373 | 9.76770 | 38974 ft | 434 kts | 192° |
| 2026-05-06 09:53 | 57.17391 | 9.75232 | 38985 ft | 434 kts | 192° |
| 2026-05-06 09:54 | 57.11406 | 9.73697 | 38991 ft | 434 kts | 192° |
| 2026-05-06 09:54 | 57.05419 | 9.72172 | 38994 ft | 434 kts | 192° |
| 2026-05-06 09:55 | 56.99432 | 9.70657 | 38975 ft | 434 kts | 191° |
| 2026-05-06 09:55 | 56.93443 | 9.69142 | 38978 ft | 435 kts | 192° |
| 2026-05-06 09:56 | 56.87455 | 9.67620 | 38983 ft | 435 kts | 192° |
| 2026-05-06 09:56 | 56.81465 | 9.66115 | 38985 ft | 435 kts | 192° |
| 2026-05-06 09:57 | 56.75470 | 9.64614 | 38984 ft | 435 kts | 191° |
| 2026-05-06 09:57 | 56.69479 | 9.63117 | 38970 ft | 435 kts | 191° |
| 2026-05-06 09:58 | 56.63479 | 9.61630 | 38975 ft | 435 kts | 191° |
| 2026-05-06 09:58 | 56.57481 | 9.60146 | 38979 ft | 435 kts | 191° |
| 2026-05-06 09:59 | 56.51483 | 9.58650 | 38981 ft | 435 kts | 191° |
| 2026-05-06 09:59 | 56.45482 | 9.57174 | 38964 ft | 435 kts | 191° |
| 2026-05-06 10:00 | 56.39479 | 9.55693 | 38972 ft | 435 kts | 191° |
| 2026-05-06 10:00 | 56.33473 | 9.54209 | 38985 ft | 436 kts | 191° |
| 2026-05-06 10:01 | 56.27464 | 9.52744 | 38980 ft | 436 kts | 191° |
| 2026-05-06 10:01 | 56.21455 | 9.51287 | 38985 ft | 436 kts | 191° |
| 2026-05-06 10:02 | 56.15444 | 9.49829 | 38966 ft | 436 kts | 191° |
| 2026-05-06 10:02 | 56.09432 | 9.48365 | 38976 ft | 436 kts | 191° |
| 2026-05-06 10:03 | 56.03419 | 9.46903 | 38968 ft | 436 kts | 191° |
| 2026-05-06 10:03 | 55.97404 | 9.45454 | 38970 ft | 436 kts | 191° |
| 2026-05-06 10:04 | 55.91390 | 9.44020 | 38955 ft | 436 kts | 191° |
| 2026-05-06 10:04 | 55.85407 | 9.42592 | 38955 ft | 437 kts | 191° |
| 2026-05-06 10:05 | 55.79385 | 9.41154 | 38962 ft | 437 kts | 191° |
| 2026-05-06 10:05 | 55.73353 | 9.39716 | 38961 ft | 438 kts | 191° |
| 2026-05-06 10:06 | 55.67315 | 9.38284 | 38965 ft | 438 kts | 191° |
| 2026-05-06 10:06 | 55.61276 | 9.36867 | 38983 ft | 438 kts | 190° |
| 2026-05-06 10:07 | 55.55233 | 9.35445 | 38980 ft | 438 kts | 190° |
| 2026-05-06 10:07 | 55.49196 | 9.34023 | 38966 ft | 438 kts | 191° |
| 2026-05-06 10:08 | 55.43156 | 9.32602 | 38966 ft | 438 kts | 190° |
| 2026-05-06 10:08 | 55.37117 | 9.31191 | 38960 ft | 438 kts | 190° |
| 2026-05-06 10:09 | 55.31075 | 9.29789 | 38964 ft | 438 kts | 190° |
| 2026-05-06 10:09 | 55.25031 | 9.28392 | 38965 ft | 438 kts | 190° |
| 2026-05-06 10:10 | 55.18989 | 9.26993 | 38966 ft | 438 kts | 190° |
| 2026-05-06 10:10 | 55.12945 | 9.25603 | 38955 ft | 438 kts | 190° |
| 2026-05-06 10:11 | 55.06897 | 9.24221 | 38954 ft | 438 kts | 190° |
| 2026-05-06 10:11 | 55.00847 | 9.22835 | 38948 ft | 439 kts | 190° |
| 2026-05-06 10:12 | 54.94796 | 9.21446 | 38945 ft | 439 kts | 190° |
| 2026-05-06 10:12 | 54.88779 | 9.20076 | 38928 ft | 439 kts | 189° |
| 2026-05-06 10:13 | 54.82676 | 9.19323 | 38929 ft | 441 kts | 183° |
| 2026-05-06 10:13 | 54.76541 | 9.19168 | 38931 ft | 441 kts | 183° |
| 2026-05-06 10:14 | 54.70402 | 9.19005 | 38932 ft | 441 kts | 183° |
| 2026-05-06 10:14 | 54.64266 | 9.18843 | 38916 ft | 441 kts | 183° |
| 2026-05-06 10:15 | 54.58123 | 9.18673 | 38912 ft | 441 kts | 183° |
| 2026-05-06 10:15 | 54.51983 | 9.18508 | 38918 ft | 442 kts | 183° |
| 2026-05-06 10:16 | 54.45833 | 9.18344 | 38923 ft | 442 kts | 183° |
| 2026-05-06 10:16 | 54.39681 | 9.18179 | 38914 ft | 442 kts | 183° |
| 2026-05-06 10:17 | 54.33529 | 9.18027 | 38917 ft | 442 kts | 183° |
| 2026-05-06 10:17 | 54.27379 | 9.17875 | 38905 ft | 442 kts | 183° |
| 2026-05-06 10:18 | 54.21229 | 9.17712 | 38906 ft | 442 kts | 183° |
| 2026-05-06 10:18 | 54.15074 | 9.17545 | 38902 ft | 442 kts | 183° |
| 2026-05-06 10:19 | 54.08921 | 9.17387 | 38893 ft | 442 kts | 183° |
| 2026-05-06 10:19 | 54.02768 | 9.17230 | 38895 ft | 442 kts | 183° |
| 2026-05-06 10:20 | 53.96613 | 9.17075 | 38895 ft | 442 kts | 183° |
| 2026-05-06 10:20 | 53.90457 | 9.16910 | 38899 ft | 443 kts | 183° |
| 2026-05-06 10:21 | 53.84300 | 9.16746 | 38890 ft | 442 kts | 183° |
| 2026-05-06 10:21 | 53.78143 | 9.16588 | 38895 ft | 442 kts | 183° |
| 2026-05-06 10:22 | 53.71985 | 9.16434 | 38897 ft | 443 kts | 183° |
| 2026-05-06 10:22 | 53.65824 | 9.16283 | 38895 ft | 443 kts | 183° |
| 2026-05-06 10:23 | 53.59662 | 9.16132 | 38889 ft | 443 kts | 183° |
| 2026-05-06 10:23 | 53.53493 | 9.15975 | 38889 ft | 443 kts | 183° |
| 2026-05-06 10:24 | 53.47337 | 9.15816 | 38888 ft | 442 kts | 183° |
| 2026-05-06 10:24 | 53.41190 | 9.15664 | 38886 ft | 442 kts | 183° |
| 2026-05-06 10:25 | 53.35049 | 9.15501 | 38874 ft | 442 kts | 183° |
| 2026-05-06 10:25 | 53.28898 | 9.15342 | 38876 ft | 442 kts | 183° |
| 2026-05-06 10:26 | 53.22750 | 9.15194 | 38881 ft | 442 kts | 183° |
| 2026-05-06 10:26 | 53.16605 | 9.15050 | 38878 ft | 442 kts | 183° |
| 2026-05-06 10:27 | 53.10460 | 9.14901 | 38883 ft | 442 kts | 183° |
| 2026-05-06 10:27 | 53.04316 | 9.14751 | 38882 ft | 442 kts | 183° |
| 2026-05-06 10:28 | 52.98170 | 9.14592 | 38880 ft | 442 kts | 183° |
| 2026-05-06 10:28 | 52.92025 | 9.14444 | 38864 ft | 441 kts | 183° |
| 2026-05-06 10:29 | 52.85882 | 9.14301 | 38857 ft | 441 kts | 183° |
| 2026-05-06 10:29 | 52.79737 | 9.14149 | 38854 ft | 441 kts | 183° |
| 2026-05-06 10:30 | 52.73608 | 9.13996 | 38857 ft | 441 kts | 183° |
| 2026-05-06 10:30 | 52.67474 | 9.13844 | 38848 ft | 441 kts | 183° |
| 2026-05-06 10:31 | 52.61342 | 9.13691 | 38841 ft | 441 kts | 183° |
| 2026-05-06 10:31 | 52.55210 | 9.13552 | 38834 ft | 441 kts | 183° |
| 2026-05-06 10:32 | 52.49072 | 9.13399 | 38830 ft | 441 kts | 183° |
| 2026-05-06 10:32 | 52.42937 | 9.13247 | 38830 ft | 441 kts | 183° |
| 2026-05-06 10:33 | 52.36798 | 9.13103 | 38819 ft | 441 kts | 183° |
| 2026-05-06 10:33 | 52.30657 | 9.12963 | 38823 ft | 441 kts | 183° |
| 2026-05-06 10:34 | 52.24510 | 9.12818 | 38826 ft | 441 kts | 183° |
| 2026-05-06 10:34 | 52.19406 | 9.12698 | 38829 ft | 442 kts | 183° |
| 2026-05-06 10:35 | 52.13261 | 9.12558 | 38822 ft | 441 kts | 183° |
| 2026-05-06 10:35 | 52.07124 | 9.12405 | 38824 ft | 441 kts | 183° |
| 2026-05-06 10:36 | 52.00988 | 9.12260 | 38819 ft | 441 kts | 183° |
| 2026-05-06 10:36 | 51.94847 | 9.12121 | 38817 ft | 441 kts | 183° |
| 2026-05-06 10:37 | 51.88714 | 9.11975 | 38808 ft | 440 kts | 183° |
| 2026-05-06 10:37 | 51.82586 | 9.11827 | 38805 ft | 440 kts | 183° |
| 2026-05-06 10:38 | 51.76459 | 9.11690 | 38805 ft | 440 kts | 183° |
| 2026-05-06 10:38 | 51.70333 | 9.11550 | 38805 ft | 440 kts | 183° |
| 2026-05-06 10:39 | 51.64205 | 9.11403 | 38794 ft | 440 kts | 183° |
| 2026-05-06 10:39 | 51.58076 | 9.11253 | 38795 ft | 440 kts | 183° |
| 2026-05-06 10:40 | 51.51946 | 9.11113 | 38790 ft | 440 kts | 185° |
| 2026-05-06 10:40 | 51.45935 | 9.09574 | 38787 ft | 438 kts | 192° |
| 2026-05-06 10:41 | 51.39927 | 9.07922 | 38774 ft | 438 kts | 191° |
| 2026-05-06 10:41 | 51.33899 | 9.06461 | 38770 ft | 438 kts | 190° |
| 2026-05-06 10:42 | 51.27866 | 9.05007 | 38791 ft | 438 kts | 190° |
| 2026-05-06 10:42 | 51.21840 | 9.03509 | 38785 ft | 438 kts | 191° |
| 2026-05-06 10:43 | 51.15812 | 9.01989 | 38779 ft | 439 kts | 191° |
| 2026-05-06 10:44 | 51.06763 | 8.99739 | 38788 ft | 439 kts | 190° |
| 2026-05-06 10:44 | 51.00726 | 8.98244 | 38781 ft | 439 kts | 190° |
| 2026-05-06 10:45 | 50.94682 | 8.96759 | 38774 ft | 439 kts | 190° |
| 2026-05-06 10:45 | 50.88640 | 8.95267 | 38770 ft | 440 kts | 190° |
| 2026-05-06 10:46 | 50.82592 | 8.93776 | 38769 ft | 440 kts | 190° |
| 2026-05-06 10:46 | 50.76544 | 8.92296 | 38771 ft | 440 kts | 190° |
| 2026-05-06 10:47 | 50.70488 | 8.90824 | 38776 ft | 440 kts | 190° |
| 2026-05-06 10:47 | 50.64435 | 8.89351 | 38777 ft | 440 kts | 190° |
| 2026-05-06 10:48 | 50.58382 | 8.87873 | 38781 ft | 440 kts | 190° |
| 2026-05-06 10:48 | 50.52325 | 8.86406 | 38764 ft | 440 kts | 190° |
| 2026-05-06 10:49 | 50.46271 | 8.84947 | 38778 ft | 440 kts | 190° |
| 2026-05-06 10:49 | 50.40221 | 8.83479 | 38783 ft | 440 kts | 190° |
| 2026-05-06 10:50 | 50.34171 | 8.82025 | 38784 ft | 440 kts | 190° |
| 2026-05-06 10:50 | 50.28118 | 8.80576 | 38787 ft | 440 kts | 190° |
| 2026-05-06 10:51 | 50.22056 | 8.79124 | 38791 ft | 441 kts | 190° |
| 2026-05-06 10:51 | 50.15985 | 8.77676 | 38793 ft | 441 kts | 190° |
| 2026-05-06 10:52 | 50.09914 | 8.76228 | 38783 ft | 442 kts | 190° |
| 2026-05-06 10:52 | 50.03837 | 8.74785 | 38797 ft | 442 kts | 190° |
| 2026-05-06 10:53 | 49.97764 | 8.73346 | 38801 ft | 441 kts | 190° |
| 2026-05-06 10:53 | 49.91690 | 8.71911 | 38797 ft | 441 kts | 190° |
| 2026-05-06 10:54 | 49.85625 | 8.70483 | 38802 ft | 441 kts | 190° |
| 2026-05-06 10:54 | 49.79570 | 8.69049 | 38813 ft | 439 kts | 190° |
| 2026-05-06 10:55 | 49.73536 | 8.67633 | 38816 ft | 438 kts | 190° |
| 2026-05-06 10:55 | 49.67512 | 8.66222 | 38823 ft | 437 kts | 190° |
| 2026-05-06 10:56 | 49.61496 | 8.64822 | 38821 ft | 437 kts | 190° |
| 2026-05-06 10:56 | 49.55483 | 8.63431 | 38828 ft | 437 kts | 190° |
| 2026-05-06 10:57 | 49.49472 | 8.62032 | 38830 ft | 437 kts | 190° |
| 2026-05-06 10:57 | 49.43463 | 8.60631 | 38830 ft | 437 kts | 190° |
| 2026-05-06 10:58 | 49.37453 | 8.59237 | 38818 ft | 437 kts | 190° |
| 2026-05-06 10:58 | 49.31426 | 8.57856 | 38815 ft | 438 kts | 190° |
| 2026-05-06 10:59 | 49.25398 | 8.56470 | 38815 ft | 438 kts | 190° |
| 2026-05-06 10:59 | 49.19361 | 8.55089 | 38798 ft | 439 kts | 190° |
| 2026-05-06 11:00 | 49.13308 | 8.53701 | 38787 ft | 440 kts | 191° |
| 2026-05-06 11:00 | 49.07240 | 8.52314 | 38794 ft | 441 kts | 191° |
| 2026-05-06 11:01 | 49.01159 | 8.50940 | 38803 ft | 442 kts | 190° |
| 2026-05-06 11:01 | 48.95070 | 8.49565 | 38805 ft | 442 kts | 191° |
| 2026-05-06 11:02 | 48.88981 | 8.48179 | 38814 ft | 443 kts | 191° |
| 2026-05-06 11:02 | 48.82883 | 8.46800 | 38821 ft | 443 kts | 191° |
| 2026-05-06 11:03 | 48.76783 | 8.45428 | 38822 ft | 443 kts | 191° |
| 2026-05-06 11:03 | 48.70699 | 8.44055 | 38834 ft | 441 kts | 191° |
| 2026-05-06 11:04 | 48.64628 | 8.42687 | 38836 ft | 441 kts | 191° |
| 2026-05-06 11:04 | 48.58565 | 8.41329 | 38841 ft | 440 kts | 191° |
| 2026-05-06 11:05 | 48.52512 | 8.39976 | 38842 ft | 440 kts | 191° |
| 2026-05-06 11:05 | 48.46463 | 8.38631 | 38840 ft | 439 kts | 191° |
| 2026-05-06 11:06 | 48.40416 | 8.37289 | 38843 ft | 439 kts | 191° |
| 2026-05-06 11:06 | 48.34374 | 8.35947 | 38839 ft | 439 kts | 191° |
| 2026-05-06 11:07 | 48.28341 | 8.34611 | 38843 ft | 438 kts | 190° |
| 2026-05-06 11:07 | 48.22315 | 8.33289 | 38849 ft | 437 kts | 190° |
| 2026-05-06 11:08 | 48.16282 | 8.32152 | 38848 ft | 439 kts | 183° |
| 2026-05-06 11:08 | 48.10208 | 8.32226 | 38849 ft | 439 kts | 182° |
| 2026-05-06 11:09 | 48.04109 | 8.32309 | 38855 ft | 438 kts | 182° |
| 2026-05-06 11:09 | 47.98013 | 8.32391 | 38856 ft | 438 kts | 182° |
| 2026-05-06 11:10 | 47.91926 | 8.32475 | 38855 ft | 437 kts | 182° |
| 2026-05-06 11:10 | 47.85843 | 8.32558 | 38858 ft | 437 kts | 182° |
| 2026-05-06 11:11 | 47.79767 | 8.32643 | 38861 ft | 436 kts | 182° |
| 2026-05-06 11:11 | 47.73696 | 8.32733 | 38862 ft | 436 kts | 182° |
| 2026-05-06 11:12 | 47.67631 | 8.32821 | 38855 ft | 436 kts | 182° |
| 2026-05-06 11:12 | 47.61564 | 8.32893 | 38839 ft | 436 kts | 182° |
| 2026-05-06 11:12 | 47.58528 | 8.32930 | 38621 ft | 435 kts | 182° |
| 2026-05-06 11:13 | 47.55532 | 8.32968 | 38384 ft | 434 kts | 182° |
| 2026-05-06 11:13 | 47.52513 | 8.33008 | 38105 ft | 433 kts | 182° |
| 2026-05-06 11:13 | 47.49501 | 8.33048 | 37820 ft | 432 kts | 182° |
| 2026-05-06 11:13 | 47.46496 | 8.33090 | 37552 ft | 431 kts | 182° |
| 2026-05-06 11:14 | 47.43504 | 8.33135 | 37286 ft | 430 kts | 182° |
| 2026-05-06 11:14 | 47.40511 | 8.33182 | 37009 ft | 429 kts | 182° |
| 2026-05-06 11:14 | 47.37528 | 8.33245 | 36730 ft | 429 kts | 181° |
| 2026-05-06 11:14 | 47.34663 | 8.33457 | 36487 ft | 428 kts | 179° |
| 2026-05-06 11:15 | 47.31701 | 8.33826 | 36233 ft | 428 kts | 178° |
| 2026-05-06 11:15 | 47.28740 | 8.34282 | 35981 ft | 426 kts | 178° |
| 2026-05-06 11:15 | 47.25800 | 8.34757 | 35734 ft | 425 kts | 178° |
| 2026-05-06 11:15 | 47.22868 | 8.35213 | 35481 ft | 423 kts | 178° |
| 2026-05-06 11:16 | 47.19952 | 8.35634 | 35239 ft | 421 kts | 179° |
| 2026-05-06 11:16 | 47.17034 | 8.36027 | 34992 ft | 419 kts | 179° |
| 2026-05-06 11:16 | 47.14131 | 8.36401 | 34758 ft | 418 kts | 179° |
| 2026-05-06 11:16 | 47.11240 | 8.36765 | 34520 ft | 416 kts | 180° |
| 2026-05-06 11:17 | 47.08365 | 8.37123 | 34274 ft | 414 kts | 180° |
| 2026-05-06 11:17 | 47.05489 | 8.37486 | 34025 ft | 412 kts | 180° |
| 2026-05-06 11:17 | 47.02636 | 8.37850 | 33779 ft | 411 kts | 180° |
| 2026-05-06 11:17 | 46.99792 | 8.38219 | 33513 ft | 410 kts | 180° |
| 2026-05-06 11:18 | 46.97910 | 8.38466 | 33335 ft | 410 kts | 179° |
| 2026-05-06 11:18 | 46.95068 | 8.38841 | 33056 ft | 410 kts | 180° |
| 2026-05-06 11:18 | 46.92228 | 8.39214 | 32830 ft | 410 kts | 180° |
| 2026-05-06 11:19 | 46.86533 | 8.39945 | 32821 ft | 411 kts | 180° |
| 2026-05-06 11:19 | 46.80826 | 8.40674 | 32838 ft | 412 kts | 179° |
| 2026-05-06 11:20 | 46.74158 | 8.41534 | 32862 ft | 412 kts | 179° |
| 2026-05-06 11:20 | 46.69419 | 8.42141 | 32858 ft | 411 kts | 180° |
| 2026-05-06 11:21 | 46.63706 | 8.42871 | 32870 ft | 413 kts | 179° |
| 2026-05-06 11:21 | 46.57971 | 8.43600 | 32857 ft | 414 kts | 179° |
| 2026-05-06 11:22 | 46.52233 | 8.44330 | 32541 ft | 415 kts | 179° |
| 2026-05-06 11:22 | 46.49343 | 8.44698 | 31403 ft | 418 kts | 179° |
| 2026-05-06 11:22 | 46.46448 | 8.45066 | 30301 ft | 418 kts | 179° |
| 2026-05-06 11:22 | 46.43545 | 8.45437 | 29153 ft | 419 kts | 179° |
| 2026-05-06 11:23 | 46.40634 | 8.45809 | 28047 ft | 422 kts | 179° |
| 2026-05-06 11:23 | 46.37700 | 8.46183 | 27275 ft | 425 kts | 178° |
| 2026-05-06 11:23 | 46.34745 | 8.46562 | 26590 ft | 426 kts | 178° |
| 2026-05-06 11:23 | 46.31837 | 8.46977 | 26203 ft | 412 kts | 175° |
| 2026-05-06 11:24 | 46.29101 | 8.48065 | 25692 ft | 408 kts | 163° |
| 2026-05-06 11:24 | 46.26480 | 8.49579 | 25012 ft | 404 kts | 162° |
| 2026-05-06 11:24 | 46.23890 | 8.51115 | 24246 ft | 402 kts | 162° |
| 2026-05-06 11:24 | 46.21319 | 8.52661 | 23515 ft | 399 kts | 162° |
| 2026-05-06 11:25 | 46.18761 | 8.54206 | 22673 ft | 398 kts | 162° |
| 2026-05-06 11:25 | 46.16204 | 8.55748 | 21843 ft | 398 kts | 161° |
| 2026-05-06 11:25 | 46.13646 | 8.57269 | 21032 ft | 398 kts | 161° |
| 2026-05-06 11:25 | 46.11080 | 8.58784 | 20235 ft | 398 kts | 161° |
| 2026-05-06 11:26 | 46.08521 | 8.60290 | 19540 ft | 395 kts | 161° |
| 2026-05-06 11:26 | 46.05987 | 8.61781 | 18912 ft | 392 kts | 161° |
| 2026-05-06 11:26 | 46.03470 | 8.63263 | 18281 ft | 389 kts | 160° |
| 2026-05-06 11:26 | 46.00984 | 8.64732 | 17603 ft | 385 kts | 160° |
| 2026-05-06 11:27 | 45.98512 | 8.66194 | 16894 ft | 383 kts | 160° |
| 2026-05-06 11:27 | 45.96026 | 8.67660 | 16211 ft | 379 kts | 160° |
| 2026-05-06 11:27 | 45.93596 | 8.69088 | 15542 ft | 375 kts | 160° |
| 2026-05-06 11:27 | 45.91194 | 8.70499 | 14893 ft | 371 kts | 160° |
| 2026-05-06 11:28 | 45.88852 | 8.71875 | 14242 ft | 366 kts | 160° |
| 2026-05-06 11:28 | 45.86508 | 8.73255 | 13620 ft | 362 kts | 160° |
| 2026-05-06 11:28 | 45.84188 | 8.74618 | 12916 ft | 358 kts | 160° |
| 2026-05-06 11:28 | 45.81869 | 8.75978 | 12234 ft | 354 kts | 160° |
| 2026-05-06 11:29 | 45.79635 | 8.77286 | 11577 ft | 350 kts | 160° |
| 2026-05-06 11:29 | 45.77364 | 8.78612 | 10909 ft | 345 kts | 160° |
| 2026-05-06 11:29 | 45.75185 | 8.79881 | 10375 ft | 339 kts | 160° |
| 2026-05-06 11:29 | 45.73026 | 8.81138 | 9890 ft | 332 kts | 160° |
| 2026-05-06 11:30 | 45.70908 | 8.82368 | 9425 ft | 325 kts | 160° |
| 2026-05-06 11:30 | 45.68862 | 8.83557 | 9284 ft | 309 kts | 160° |
| 2026-05-06 11:30 | 45.66913 | 8.84691 | 9150 ft | 296 kts | 160° |
| 2026-05-06 11:30 | 45.65057 | 8.85770 | 9015 ft | 277 kts | 160° |
| 2026-05-06 11:31 | 45.63344 | 8.86771 | 8886 ft | 256 kts | 160° |
| 2026-05-06 11:31 | 45.61706 | 8.87674 | 8864 ft | 251 kts | 167° |
| 2026-05-06 11:31 | 45.59998 | 8.88168 | 8864 ft | 251 kts | 172° |
| 2026-05-06 11:31 | 45.58282 | 8.88626 | 8808 ft | 251 kts | 172° |
| 2026-05-06 11:32 | 45.56573 | 8.89090 | 8572 ft | 249 kts | 172° |
| 2026-05-06 11:32 | 45.54879 | 8.89553 | 8364 ft | 247 kts | 172° |
| 2026-05-06 11:32 | 45.53185 | 8.90012 | 8164 ft | 249 kts | 172° |
| 2026-05-06 11:32 | 45.51472 | 8.90469 | 7971 ft | 253 kts | 173° |
| 2026-05-06 11:33 | 45.49740 | 8.90959 | 7755 ft | 253 kts | 171° |
| 2026-05-06 11:33 | 45.48036 | 8.91439 | 7544 ft | 247 kts | 171° |
| 2026-05-06 11:33 | 45.46365 | 8.91898 | 7350 ft | 242 kts | 171° |
| 2026-05-06 11:33 | 45.44719 | 8.92344 | 7167 ft | 240 kts | 170° |
| 2026-05-06 11:34 | 45.43068 | 8.92789 | 6962 ft | 244 kts | 171° |
| 2026-05-06 11:34 | 45.41392 | 8.93225 | 6823 ft | 245 kts | 175° |
| 2026-05-06 11:34 | 45.39743 | 8.92841 | 6504 ft | 242 kts | 209° |
| 2026-05-06 11:34 | 45.38584 | 8.91210 | 6109 ft | 236 kts | 241° |
| 2026-05-06 11:35 | 45.38173 | 8.88966 | 5661 ft | 235 kts | 258° |
| 2026-05-06 11:35 | 45.37898 | 8.86705 | 5213 ft | 230 kts | 256° |
| 2026-05-06 11:35 | 45.37604 | 8.84488 | 4857 ft | 226 kts | 258° |
| 2026-05-06 11:35 | 45.37752 | 8.82283 | 4615 ft | 226 kts | 289° |
| 2026-05-06 11:36 | 45.38668 | 8.80513 | 4486 ft | 224 kts | 320° |
| 2026-05-06 11:36 | 45.40069 | 8.79647 | 4332 ft | 220 kts | 347° |
| 2026-05-06 11:36 | 45.41580 | 8.79241 | 4131 ft | 221 kts | 348° |
| 2026-05-06 11:36 | 45.43091 | 8.78832 | 3935 ft | 222 kts | 348° |
| 2026-05-06 11:37 | 45.44614 | 8.78415 | 3610 ft | 224 kts | 348° |
| 2026-05-06 11:37 | 45.46143 | 8.77997 | 3371 ft | 223 kts | 349° |
| 2026-05-06 11:37 | 45.47658 | 8.77581 | 3117 ft | 220 kts | 348° |
| 2026-05-06 11:37 | 45.49129 | 8.77177 | 3007 ft | 210 kts | 348° |
| 2026-05-06 11:38 | 45.50535 | 8.76791 | 2871 ft | 203 kts | 348° |
| 2026-05-06 11:38 | 45.51907 | 8.76413 | 2674 ft | 196 kts | 348° |
| 2026-05-06 11:38 | 45.53211 | 8.76054 | 2387 ft | 186 kts | 349° |
| 2026-05-06 11:38 | 45.54466 | 8.75709 | 2146 ft | 182 kts | 349° |
| 2026-05-06 11:39 | 45.55687 | 8.75373 | 1900 ft | 172 kts | 349° |
| 2026-05-06 11:39 | 45.56814 | 8.75062 | 1689 ft | 158 kts | 348° |
| 2026-05-06 11:39 | 45.57871 | 8.74771 | 1472 ft | 152 kts | 350° |
| 2026-05-06 11:39 | 45.58887 | 8.74491 | 1268 ft | 147 kts | 350° |
| 2026-05-06 11:40 | 45.59885 | 8.74209 | 1076 ft | 146 kts | 353° |
| 2026-05-06 11:40 | 45.60878 | 8.73933 | 915 ft | 143 kts | 353° |
| 2026-05-06 11:40 | 45.61864 | 8.73665 | 764 ft | 144 kts | 354° |
| 2026-05-06 11:40 | 45.62758 | 8.73421 | 740 ft | 110 kts | 348° |
| 2026-05-06 11:41 | 45.63210 | 8.73297 | 739 ft | 34 kts | 349° |
| 2026-05-06 11:41 | 45.63415 | 8.73240 | 739 ft | 26 kts | 349° |
| 2026-05-06 11:41 | 45.63610 | 8.73176 | 742 ft | 31 kts | 339° |
| 2026-05-06 11:41 | 45.63780 | 8.72981 | 741 ft | 32 kts | 313° |
| 2026-05-06 11:42 | 45.63878 | 8.72778 | 741 ft | 24 kts | 304° |
| 2026-05-06 11:42 | 45.63945 | 8.72631 | 740 ft | 17 kts | 299° |
| 2026-05-06 11:42 | 45.63943 | 8.72462 | 741 ft | 19 kts | 259° |
| 2026-05-06 11:42 | 45.63922 | 8.72302 | 739 ft | 11 kts | 259° |
| 2026-05-06 11:43 | 45.63915 | 8.72184 | 741 ft | 14 kts | 267° |
| 2026-05-06 11:43 | 45.63908 | 8.71994 | 740 ft | 22 kts | 265° |
| 2026-05-06 11:43 | 45.63867 | 8.71829 | 740 ft | 16 kts | 213° |
| 2026-05-06 11:44 | 45.63598 | 8.71880 | 741 ft | 23 kts | 169° |
| 2026-05-06 11:44 | 45.63430 | 8.71928 | 741 ft | 25 kts | 169° |
| 2026-05-06 11:44 | 45.63259 | 8.71974 | 741 ft | 26 kts | 169° |
| 2026-05-06 11:44 | 45.63075 | 8.72023 | 741 ft | 27 kts | 169° |
| 2026-05-06 11:45 | 45.62907 | 8.72070 | 741 ft | 22 kts | 169° |
| 2026-05-06 11:45 | 45.62753 | 8.72113 | 741 ft | 21 kts | 168° |
| 2026-05-06 11:45 | 45.62680 | 8.72067 | 741 ft | 12 kts | 261° |
| 2026-05-06 11:45 | 45.62665 | 8.71944 | 740 ft | 13 kts | 258° |
| 2026-05-06 11:46 | 45.62647 | 8.71810 | 741 ft | 14 kts | 259° |
| 2026-05-06 11:46 | 45.62630 | 8.71675 | 741 ft | 10 kts | 259° |
| 2026-05-06 11:46 | 45.62594 | 8.71660 | 741 ft | 7 kts | 170° |
| 2026-05-06 11:46 | 45.62555 | 8.71671 | 740 ft | 0 kts | 169° |
| 2026-05-06 11:47 | 45.62551 | 8.71672 | 741 ft | 0 kts | 169° |